createdAt,value
2019-04-16T00:01:02.633Z,14.60
2019-04-16T00:03:33.432Z,14.60
2019-04-16T00:06:08.268Z,14.50
2019-04-16T00:08:45.362Z,14.50
2019-04-16T00:11:21.376Z,14.40
2019-04-16T00:14:04.396Z,14.40
2019-04-16T00:16:34.450Z,14.30
2019-04-16T00:19:06.452Z,14.30
2019-04-16T00:21:57.441Z,14.20
2019-04-16T00:24:38.926Z,14.20
2019-04-16T00:27:08.774Z,14.10
2019-04-16T00:29:39.822Z,14.10
2019-04-16T00:32:26.153Z,14.10
2019-04-16T00:34:56.067Z,14.00
2019-04-16T00:37:26.507Z,14.00
2019-04-16T00:39:56.997Z,13.90
2019-04-16T00:42:27.461Z,13.90
2019-04-16T00:44:57.530Z,13.90
2019-04-16T00:47:27.414Z,13.80
2019-04-16T00:49:59.310Z,13.80
2019-04-16T00:52:29.835Z,13.80
2019-04-16T00:55:00.184Z,13.70
2019-04-16T00:57:30.937Z,13.70
2019-04-16T01:00:01.479Z,13.60
2019-04-16T01:02:31.342Z,13.60
2019-04-16T01:05:01.285Z,13.60
2019-04-16T01:07:31.069Z,13.50
2019-04-16T01:10:01.375Z,13.50
2019-04-16T01:12:31.829Z,13.40
2019-04-16T01:15:02.291Z,13.40
2019-04-16T01:17:33.421Z,13.40
2019-04-16T01:20:04.363Z,13.30
2019-04-16T01:22:34.222Z,13.30
2019-04-16T01:25:04.048Z,13.30
2019-04-16T01:27:37.403Z,13.20
2019-04-16T01:30:10.039Z,13.20
2019-04-16T01:33:04.575Z,13.20
2019-04-16T01:35:52.410Z,13.10
2019-04-16T01:38:44.586Z,13.10
2019-04-16T01:41:16.114Z,13.00
2019-04-16T01:43:45.908Z,13.00
2019-04-16T01:46:15.871Z,13.00
2019-04-16T01:48:46.053Z,12.90
2019-04-16T01:51:16.393Z,12.90
2019-04-16T01:53:49.498Z,12.80
2019-04-16T01:56:18.488Z,12.80
2019-04-16T01:58:48.749Z,12.80
2019-04-16T02:01:18.690Z,12.70
2019-04-16T02:03:49.543Z,12.70
2019-04-16T02:06:20.511Z,12.60
2019-04-16T02:08:50.738Z,12.60
2019-04-16T02:11:21.053Z,12.50
2019-04-16T02:13:50.925Z,12.50
2019-04-16T02:16:22.314Z,12.40
2019-04-16T02:18:52.746Z,12.40
2019-04-16T02:21:22.623Z,12.30
2019-04-16T02:23:52.464Z,12.30
2019-04-16T02:26:23.516Z,12.30
2019-04-16T02:28:56.480Z,12.30
2019-04-16T02:31:26.183Z,12.20
2019-04-16T02:33:56.043Z,12.20
2019-04-16T02:36:26.113Z,12.20
2019-04-16T02:38:55.952Z,12.10
2019-04-16T02:41:25.921Z,12.10
2019-04-16T02:43:56.588Z,12.10
2019-04-16T02:46:30.551Z,12.10
2019-04-16T02:48:58.127Z,12.00
2019-04-16T02:51:49.824Z,12.00
2019-04-16T02:54:34.492Z,12.00
2019-04-16T02:57:38.474Z,12.00
2019-04-16T03:00:22.038Z,11.90
2019-04-16T03:03:05.598Z,11.90
2019-04-16T03:05:38.068Z,11.90
2019-04-16T03:08:08.018Z,11.90
2019-04-16T03:10:37.918Z,11.80
2019-04-16T03:13:07.835Z,11.80
2019-04-16T03:16:06.047Z,11.80
2019-04-16T03:18:46.941Z,11.80
2019-04-16T03:21:13.825Z,11.70
2019-04-16T03:23:43.698Z,11.70
2019-04-16T03:26:16.367Z,11.70
2019-04-16T03:28:45.527Z,11.70
2019-04-16T03:31:22.368Z,11.70
2019-04-16T03:33:50.690Z,11.60
2019-04-16T03:36:20.230Z,11.60
2019-04-16T03:38:50.814Z,11.60
2019-04-16T03:41:20.612Z,11.60
2019-04-16T03:43:51.135Z,11.50
2019-04-16T03:46:21.476Z,11.50
2019-04-16T03:48:52.662Z,11.50
2019-04-16T03:51:23.039Z,11.40
2019-04-16T03:53:52.906Z,11.40
2019-04-16T03:56:23.347Z,11.30
2019-04-16T03:58:55.257Z,11.30
2019-04-16T04:01:25.312Z,11.30
2019-04-16T04:03:57.559Z,11.30
2019-04-16T04:06:27.398Z,11.20
2019-04-16T04:08:57.563Z,11.20
2019-04-16T04:11:32.468Z,11.20
2019-04-16T04:14:02.913Z,11.10
2019-04-16T04:16:34.487Z,11.10
2019-04-16T04:19:04.523Z,11.10
2019-04-16T04:21:34.608Z,11.00
2019-04-16T04:24:04.625Z,11.00
2019-04-16T04:26:34.728Z,11.00
2019-04-16T04:29:06.338Z,10.90
2019-04-16T04:31:36.543Z,10.90
2019-04-16T04:34:10.691Z,10.90
2019-04-16T04:36:40.714Z,10.90
2019-04-16T04:39:14.953Z,10.80
2019-04-16T04:41:43.103Z,10.80
2019-04-16T04:44:12.945Z,10.80
2019-04-16T04:46:43.169Z,10.70
2019-04-16T04:49:16.269Z,10.70
2019-04-16T04:51:46.077Z,10.70
2019-04-16T04:54:15.978Z,10.60
2019-04-16T04:56:45.826Z,10.60
2019-04-16T04:59:16.210Z,10.60
2019-04-16T05:01:46.299Z,10.60
2019-04-16T05:04:52.460Z,10.60
2019-04-16T05:07:21.740Z,10.50
2019-04-16T05:09:51.644Z,10.50
2019-04-16T05:12:22.275Z,10.60
2019-04-16T05:14:58.446Z,10.60
2019-04-16T05:17:29.645Z,10.50
2019-04-16T05:19:59.497Z,10.60
2019-04-16T05:22:33.011Z,10.60
2019-04-16T05:25:02.743Z,10.50
2019-04-16T05:27:32.631Z,10.50
2019-04-16T05:30:03.445Z,10.50
2019-04-16T05:32:34.265Z,10.50
2019-04-16T05:35:09.197Z,10.40
2019-04-16T05:37:39.591Z,10.40
2019-04-16T05:40:09.442Z,10.40
2019-04-16T05:42:39.229Z,10.30
2019-04-16T05:45:10.540Z,10.30
2019-04-16T05:47:40.434Z,10.30
2019-04-16T05:50:10.298Z,10.30
2019-04-16T05:52:40.711Z,10.30
2019-04-16T05:55:19.344Z,10.40
2019-04-16T05:57:50.354Z,10.30
2019-04-16T06:00:44.694Z,10.30
2019-04-16T06:03:20.578Z,10.30
2019-04-16T06:05:47.628Z,10.30
2019-04-16T06:08:17.917Z,10.20
2019-04-16T06:10:51.098Z,10.20
2019-04-16T06:13:41.308Z,10.20
2019-04-16T06:16:25.672Z,10.20
2019-04-16T06:19:14.002Z,10.20
2019-04-16T06:22:01.690Z,10.20
2019-04-16T06:24:50.356Z,10.30
2019-04-16T06:27:33.722Z,10.30
2019-04-16T06:30:33.028Z,10.30
2019-04-16T06:33:09.012Z,10.30
2019-04-16T06:36:16.551Z,10.40
2019-04-16T06:39:01.102Z,10.40
2019-04-16T06:41:49.189Z,10.50
2019-04-16T06:44:22.567Z,10.50
2019-04-16T06:47:10.474Z,10.60
2019-04-16T06:49:58.045Z,10.70
2019-04-16T06:52:48.951Z,10.70
2019-04-16T06:55:42.871Z,10.80
2019-04-16T06:58:27.268Z,10.90
2019-04-16T07:01:22.270Z,11.00
2019-04-16T07:04:15.076Z,11.00
2019-04-16T07:07:07.817Z,11.10
2019-04-16T07:09:48.675Z,11.20
2019-04-16T07:12:23.736Z,11.20
2019-04-16T07:14:54.172Z,11.30
2019-04-16T07:17:24.225Z,11.30
2019-04-16T07:19:54.391Z,11.40
2019-04-16T07:22:24.343Z,11.50
2019-04-16T07:25:03.905Z,11.50
2019-04-16T07:28:04.025Z,11.60
2019-04-16T07:30:44.447Z,11.60
2019-04-16T07:33:24.349Z,11.70
2019-04-16T07:36:15.820Z,11.80
2019-04-16T07:39:08.491Z,11.80
2019-04-16T07:42:10.704Z,11.90
2019-04-16T07:44:44.609Z,11.90
2019-04-16T07:47:24.483Z,12.00
2019-04-16T07:50:05.523Z,12.00
2019-04-16T07:52:54.222Z,12.10
2019-04-16T07:55:35.845Z,12.10
2019-04-16T07:58:05.656Z,12.20
2019-04-16T08:00:40.178Z,12.30
2019-04-16T08:03:07.427Z,12.30
2019-04-16T08:05:37.780Z,12.30
2019-04-16T08:08:09.205Z,12.40
2019-04-16T08:10:40.004Z,12.40
2019-04-16T08:13:17.306Z,12.50
2019-04-16T08:15:48.370Z,12.50
2019-04-16T08:18:18.283Z,12.60
2019-04-16T08:21:00.625Z,12.60
2019-04-16T08:23:29.440Z,12.70
2019-04-16T08:26:03.616Z,12.70
2019-04-16T08:28:31.846Z,12.80
2019-04-16T08:31:03.380Z,12.80
2019-04-16T08:33:33.215Z,12.90
2019-04-16T08:36:03.324Z,12.90
2019-04-16T08:38:34.830Z,13.00
2019-04-16T08:41:05.282Z,13.00
2019-04-16T08:43:35.100Z,13.10
2019-04-16T08:46:10.001Z,13.10
2019-04-16T08:48:36.828Z,13.20
2019-04-16T08:51:07.012Z,13.20
2019-04-16T08:53:36.821Z,13.30
2019-04-16T08:56:06.977Z,13.30
2019-04-16T08:58:38.422Z,13.30
2019-04-16T09:01:10.740Z,13.40
2019-04-16T09:03:40.538Z,13.50
2019-04-16T09:06:13.100Z,13.50
2019-04-16T09:09:11.577Z,13.50
2019-04-16T09:11:35.420Z,13.60
2019-04-16T09:14:05.177Z,13.60
2019-04-16T09:16:37.889Z,13.70
2019-04-16T09:19:13.792Z,13.80
2019-04-16T09:21:44.465Z,13.80
2019-04-16T09:24:22.695Z,13.80
2019-04-16T09:27:28.780Z,13.80
2019-04-16T09:30:19.723Z,13.90
2019-04-16T09:33:00.393Z,13.90
2019-04-16T09:35:50.594Z,14.00
2019-04-16T09:38:28.841Z,14.00
2019-04-16T09:41:11.691Z,14.10
2019-04-16T09:43:47.980Z,14.10
2019-04-16T09:46:25.503Z,14.20
2019-04-16T09:48:50.206Z,14.20
2019-04-16T09:51:21.160Z,14.30
2019-04-16T09:53:51.370Z,14.30
2019-04-16T09:56:28.933Z,14.40
2019-04-16T09:59:02.680Z,14.50
2019-04-16T10:01:38.742Z,14.60
2019-04-16T10:04:10.693Z,14.60
2019-04-16T10:06:41.059Z,14.70
2019-04-16T10:09:10.819Z,14.80
2019-04-16T10:11:41.006Z,14.90
2019-04-16T10:14:10.760Z,15.00
2019-04-16T10:16:41.081Z,15.10
2019-04-16T10:19:12.030Z,15.20
2019-04-16T10:21:42.749Z,15.30
2019-04-16T10:24:31.355Z,15.40
2019-04-16T10:27:04.254Z,15.50
2019-04-16T10:29:32.878Z,15.60
2019-04-16T10:32:02.798Z,15.80
2019-04-16T10:34:36.194Z,15.90
2019-04-16T10:37:05.066Z,16.00
2019-04-16T10:39:39.689Z,16.10
2019-04-16T10:42:35.123Z,16.20
2019-04-16T10:45:22.900Z,16.30
2019-04-16T10:48:03.402Z,16.40
2019-04-16T10:50:50.250Z,16.60
2019-04-16T10:53:42.503Z,16.70
2019-04-16T10:56:31.668Z,16.80
2019-04-16T10:59:29.381Z,16.90
2019-04-16T11:02:17.992Z,17.00
2019-04-16T11:04:55.450Z,17.20
2019-04-16T11:07:27.654Z,17.40
2019-04-16T11:09:57.975Z,17.60
2019-04-16T11:12:28.229Z,17.60
2019-04-16T11:14:58.710Z,17.70
2019-04-16T11:17:29.244Z,17.80
2019-04-16T11:20:00.140Z,17.90
2019-04-16T11:22:31.091Z,18.00
2019-04-16T11:25:00.925Z,18.20
2019-04-16T11:27:30.699Z,18.30
2019-04-16T11:30:05.150Z,18.40
2019-04-16T11:32:39.227Z,18.50
2019-04-16T11:35:07.020Z,18.70
2019-04-16T11:37:36.828Z,18.80
2019-04-16T11:40:06.814Z,18.90
2019-04-16T11:42:37.099Z,19.00
2019-04-16T11:45:08.550Z,19.10
2019-04-16T11:47:38.946Z,19.30
2019-04-16T11:50:09.122Z,19.40
2019-04-16T11:52:40.000Z,19.50
2019-04-16T11:55:11.000Z,19.60
2019-04-16T11:57:41.295Z,19.70
2019-04-16T12:00:14.383Z,19.80
2019-04-16T12:03:01.827Z,20.00
2019-04-16T12:05:53.215Z,20.10
2019-04-16T12:08:44.706Z,20.20
2019-04-16T12:11:25.836Z,20.30
2019-04-16T12:14:28.650Z,20.40
2019-04-16T12:16:56.298Z,20.50
2019-04-16T12:19:44.971Z,20.60
2019-04-16T12:22:24.496Z,20.70
2019-04-16T12:25:11.669Z,20.90
2019-04-16T12:28:01.864Z,21.00
2019-04-16T12:30:52.843Z,21.10
2019-04-16T12:33:49.734Z,21.20
2019-04-16T12:36:26.887Z,21.40
2019-04-16T12:39:31.181Z,21.50
2019-04-16T12:42:20.238Z,21.60
2019-04-16T12:45:27.261Z,21.80
2019-04-16T12:48:12.357Z,21.90
2019-04-16T12:51:13.133Z,22.10
2019-04-16T12:54:01.777Z,22.20
2019-04-16T12:56:54.131Z,22.30
2019-04-16T12:59:36.821Z,22.50
2019-04-16T13:02:24.104Z,22.70
2019-04-16T13:05:02.992Z,22.80
2019-04-16T13:07:52.103Z,22.90
2019-04-16T13:10:27.472Z,23.10
2019-04-16T13:13:16.098Z,23.20
2019-04-16T13:15:53.845Z,23.40
2019-04-16T13:18:36.035Z,23.60
2019-04-16T13:21:22.677Z,23.70
2019-04-16T13:24:02.543Z,23.80
2019-04-16T13:26:46.029Z,23.90
2019-04-16T13:29:18.309Z,24.10
2019-04-16T13:31:48.126Z,24.20
2019-04-16T13:34:18.617Z,24.30
2019-04-16T13:36:51.660Z,24.50
2019-04-16T13:39:31.714Z,24.60
2019-04-16T13:42:02.021Z,24.70
2019-04-16T13:44:37.613Z,24.80
2019-04-16T13:47:08.772Z,25.00
2019-04-16T13:49:44.524Z,25.10
2019-04-16T13:52:17.127Z,25.30
2019-04-16T13:55:09.882Z,25.40
2019-04-16T13:57:40.727Z,25.50
2019-04-16T14:00:19.555Z,25.70
2019-04-16T14:03:02.278Z,25.80
2019-04-16T14:05:37.501Z,25.90
2019-04-16T14:08:04.996Z,26.10
2019-04-16T14:10:35.262Z,26.20
2019-04-16T14:13:05.085Z,26.30
2019-04-16T14:15:40.255Z,26.50
2019-04-16T14:18:08.541Z,26.60
2019-04-16T14:20:39.173Z,26.70
2019-04-16T14:23:09.474Z,26.80
2019-04-16T14:25:39.627Z,26.80
2019-04-16T14:28:10.230Z,26.90
2019-04-16T14:30:44.692Z,27.00
2019-04-16T14:33:17.484Z,27.10
2019-04-16T14:35:47.271Z,27.20
2019-04-16T14:38:22.007Z,27.20
2019-04-16T14:40:52.584Z,27.30
2019-04-16T14:43:29.535Z,27.40
2019-04-16T14:46:00.675Z,27.50
2019-04-16T14:48:31.499Z,27.60
2019-04-16T14:51:01.678Z,27.70
2019-04-16T14:53:53.388Z,27.80
2019-04-16T14:56:41.933Z,27.90
2019-04-16T14:59:33.969Z,28.00
2019-04-16T15:02:32.982Z,28.10
2019-04-16T15:05:27.808Z,28.20
2019-04-16T15:08:04.288Z,28.40
2019-04-16T15:10:51.592Z,28.40
2019-04-16T15:13:39.251Z,28.50
2019-04-16T15:16:28.021Z,28.60
2019-04-16T15:19:15.887Z,28.70
2019-04-16T15:22:03.694Z,28.70
2019-04-16T15:24:58.130Z,28.80
2019-04-16T15:27:52.583Z,28.80
2019-04-16T15:30:47.284Z,28.80
2019-04-16T15:33:31.405Z,28.70
2019-04-16T15:36:19.426Z,28.70
2019-04-16T15:39:02.974Z,28.70
2019-04-16T15:41:44.695Z,28.80
2019-04-16T15:44:24.897Z,28.80
2019-04-16T15:47:14.041Z,28.80
2019-04-16T15:49:58.532Z,28.80
2019-04-16T15:52:59.806Z,28.80
2019-04-16T15:55:45.432Z,28.90
2019-04-16T15:58:41.065Z,29.00
2019-04-16T16:01:29.857Z,29.00
2019-04-16T16:04:16.179Z,29.00
2019-04-16T16:07:13.843Z,29.10
2019-04-16T16:10:20.877Z,29.20
2019-04-16T16:12:53.623Z,29.30
2019-04-16T16:15:23.738Z,29.40
2019-04-16T16:17:54.279Z,29.40
2019-04-16T16:20:24.693Z,29.40
2019-04-16T16:22:58.398Z,29.40
2019-04-16T16:25:27.042Z,29.40
2019-04-16T16:27:57.825Z,29.40
2019-04-16T16:30:27.647Z,29.40
2019-04-16T16:32:57.431Z,29.30
2019-04-16T16:35:27.297Z,29.20
2019-04-16T16:37:57.204Z,29.20
2019-04-16T16:40:26.995Z,29.00
2019-04-16T16:42:57.827Z,29.00
2019-04-16T16:45:43.961Z,28.80
2019-04-16T16:48:13.807Z,28.80
2019-04-16T16:50:46.765Z,28.70
2019-04-16T16:53:25.438Z,28.70
2019-04-16T16:56:01.287Z,28.60
2019-04-16T16:58:40.566Z,28.60
2019-04-16T17:01:34.721Z,28.60
2019-04-16T17:04:24.662Z,28.50
2019-04-16T17:06:54.547Z,28.50
2019-04-16T17:09:35.584Z,28.40
2019-04-16T17:12:06.093Z,28.30
2019-04-16T17:14:37.500Z,28.20
2019-04-16T17:17:13.928Z,28.00
2019-04-16T17:19:39.893Z,27.90
2019-04-16T17:22:09.799Z,27.70
2019-04-16T17:24:40.062Z,27.60
2019-04-16T17:27:09.936Z,27.40
2019-04-16T17:29:39.863Z,27.20
2019-04-16T17:32:10.158Z,27.10
2019-04-16T17:34:40.015Z,26.90
2019-04-16T17:37:10.141Z,26.70
2019-04-16T17:39:54.998Z,26.50
2019-04-16T17:42:43.231Z,26.40
2019-04-16T17:45:29.040Z,26.20
2019-04-16T17:48:11.112Z,26.00
2019-04-16T17:50:52.853Z,25.80
2019-04-16T17:53:37.660Z,25.60
2019-04-16T17:56:29.098Z,25.40
2019-04-16T17:59:02.500Z,25.20
2019-04-16T18:01:51.216Z,25.10
2019-04-16T18:04:44.594Z,24.90
2019-04-16T18:07:30.006Z,24.70
2019-04-16T18:10:18.687Z,24.60
2019-04-16T18:13:11.589Z,24.40
2019-04-16T18:18:27.464Z,24.10
2019-04-16T18:21:14.590Z,23.90
2019-04-16T18:24:02.095Z,23.80
2019-04-16T18:26:50.578Z,23.70
2019-04-16T18:29:34.670Z,23.60
2019-04-16T18:32:21.436Z,23.50
2019-04-16T18:35:16.140Z,23.40
2019-04-16T18:38:03.672Z,23.30
2019-04-16T18:40:52.445Z,23.20
2019-04-16T18:43:34.617Z,23.10
2019-04-16T18:46:20.849Z,23.00
2019-04-16T18:49:05.386Z,22.90
2019-04-16T18:51:35.477Z,22.80
2019-04-16T18:54:05.745Z,22.70
2019-04-16T18:56:36.195Z,22.60
2019-04-16T18:59:05.819Z,22.60
2019-04-16T19:01:37.020Z,22.50
2019-04-16T19:04:06.953Z,22.50
2019-04-16T19:06:37.911Z,22.40
2019-04-16T19:09:08.270Z,22.30
2019-04-16T19:11:37.906Z,22.20
2019-04-16T19:14:10.277Z,22.10
2019-04-16T19:16:39.714Z,22.00
2019-04-16T19:19:09.338Z,22.00
2019-04-16T19:21:42.330Z,21.90
2019-04-16T19:24:11.501Z,21.80
2019-04-16T19:26:41.232Z,21.80
2019-04-16T19:29:14.510Z,21.70
2019-04-16T19:31:43.268Z,21.70
2019-04-16T19:34:13.441Z,21.60
2019-04-16T19:36:43.237Z,21.60
2019-04-16T19:39:15.169Z,21.50
2019-04-16T19:41:45.669Z,21.40
2019-04-16T19:44:15.908Z,21.40
2019-04-16T19:46:52.585Z,21.30
2019-04-16T19:49:18.722Z,21.30
2019-04-16T19:51:48.347Z,21.30
2019-04-16T19:54:19.021Z,21.20
2019-04-16T19:56:51.371Z,21.20
2019-04-16T19:59:20.352Z,21.10
2019-04-16T20:01:51.813Z,21.10
2019-04-16T20:04:22.248Z,21.00
2019-04-16T20:06:52.635Z,20.90
2019-04-16T20:09:22.976Z,20.90
2019-04-16T20:11:55.454Z,20.90
2019-04-16T20:14:25.146Z,20.80
2019-04-16T20:16:55.549Z,20.80
2019-04-16T20:19:25.297Z,20.70
2019-04-16T20:21:55.847Z,20.60
2019-04-16T20:24:26.379Z,20.60
2019-04-16T20:26:57.066Z,20.50
2019-04-16T20:29:26.713Z,20.50
2019-04-16T20:31:57.428Z,20.50
2019-04-16T20:34:26.982Z,20.40
2019-04-16T20:36:57.232Z,20.40
2019-04-16T20:39:27.440Z,20.30
2019-04-16T20:41:59.652Z,20.20
2019-04-16T20:44:29.633Z,20.20
2019-04-16T20:47:03.356Z,20.20
2019-04-16T20:49:30.972Z,20.10
2019-04-16T20:52:02.217Z,20.10
2019-04-16T20:54:32.688Z,20.10
2019-04-16T20:57:03.148Z,20.00
2019-04-16T20:59:36.021Z,20.00
2019-04-16T21:02:05.072Z,19.90
2019-04-16T21:04:35.154Z,19.90
2019-04-16T21:07:05.274Z,19.80
2019-04-16T21:09:34.830Z,19.80
2019-04-16T21:12:04.458Z,19.70
2019-04-16T21:14:34.629Z,19.70
2019-04-16T21:17:06.913Z,19.60
2019-04-16T21:19:48.176Z,19.60
2019-04-16T21:22:18.814Z,19.50
2019-04-16T21:24:49.670Z,19.50
2019-04-16T21:27:19.236Z,19.40
2019-04-16T21:29:48.858Z,19.40
2019-04-16T21:32:36.721Z,19.30
2019-04-16T21:35:14.045Z,19.30
2019-04-16T21:37:52.696Z,19.20
2019-04-16T21:40:23.370Z,19.20
2019-04-16T21:42:55.176Z,19.20
2019-04-16T21:45:25.486Z,19.10
2019-04-16T21:47:56.432Z,19.10
2019-04-16T21:50:26.596Z,19.00
2019-04-16T21:52:56.717Z,19.00
2019-04-16T21:55:26.769Z,18.90
2019-04-16T21:57:57.462Z,18.90
2019-04-16T22:00:44.476Z,18.90
2019-04-16T22:03:14.532Z,18.90
2019-04-16T22:05:48.096Z,18.80
2019-04-16T22:08:16.837Z,18.80
2019-04-16T22:10:47.214Z,18.70
2019-04-16T22:13:19.394Z,18.70
2019-04-16T22:15:49.021Z,18.60
2019-04-16T22:18:19.107Z,19.90
2019-04-16T22:20:48.726Z,18.50
2019-04-16T22:23:20.013Z,18.50
2019-04-16T22:25:49.730Z,18.40
2019-04-16T22:28:19.325Z,18.40
2019-04-16T22:30:51.541Z,18.30
2019-04-16T22:33:20.658Z,18.40
2019-04-16T22:35:50.654Z,18.30
2019-04-16T22:38:20.233Z,18.30
2019-04-16T22:41:17.744Z,18.30
2019-04-16T22:44:06.189Z,18.20
2019-04-16T22:46:42.287Z,18.20
2019-04-16T22:49:12.263Z,18.10
2019-04-16T22:51:43.191Z,18.10
2019-04-16T22:54:13.541Z,18.00
2019-04-16T22:56:47.673Z,18.00
2019-04-16T22:59:17.245Z,17.90
2019-04-16T23:01:47.242Z,17.90
2019-04-16T23:04:16.841Z,17.80
2019-04-16T23:06:47.691Z,17.80
2019-04-16T23:09:18.140Z,17.80
2019-04-16T23:11:47.744Z,17.70
2019-04-16T23:14:17.680Z,17.70
2019-04-16T23:16:47.297Z,17.60
2019-04-16T23:19:17.468Z,17.70
2019-04-16T23:21:49.138Z,17.60
2019-04-16T23:24:23.060Z,17.50
2019-04-16T23:26:50.533Z,17.50
2019-04-16T23:29:20.567Z,17.50
2019-04-16T23:31:55.039Z,17.50
2019-04-16T23:34:21.440Z,17.40
2019-04-16T23:36:51.022Z,17.40
2019-04-16T23:39:20.633Z,17.40
2019-04-16T23:41:50.200Z,17.30
2019-04-16T23:44:31.001Z,17.30
2019-04-16T23:47:25.805Z,17.20
2019-04-16T23:50:20.613Z,17.20
2019-04-16T23:53:07.218Z,17.10
2019-04-16T23:55:54.182Z,17.10
2019-04-16T23:58:30.389Z,17.00
